Narym, Russia
Current Conditions -  °F | °C
As of 8:00 AM on Sunday 23 Nov 2014 (Local Time) from UNTT Reporting Station
Blowing Snow Blowing Snow  
Wind Chill: 10°   Ceiling: 1600
Heat Index: 25°   Visibility: 0.87mi
Dew Point: 23°   Wind: 20mph
Humidity: 93%   Direction: 230°SW
Pressure: 29.59"   Gusts: NA
Location:  58.92°N, 81.58°E
Report Text: UNTT 230100Z 23009MPS 1400 R21/P1500D SHSN DRSN SCT003 BKN016CBOVC100 M04/M05 Q1002 NOSIG RMK QBB100 QFE737 21450340
Loading
Personal Weather Stations






























Interactive Weather Map New forecast layout! Learn more

10-Day Weather Forecast

Advertisements
Track Severe Weather on mobile